createdAt,value
2017-05-25T00:01:39.429Z,68.20
2017-05-25T00:04:07.700Z,68.90
2017-05-25T00:06:35.961Z,67.60
2017-05-25T00:09:04.229Z,67.50
2017-05-25T00:11:32.519Z,67.80
2017-05-25T00:14:00.760Z,67.90
2017-05-25T00:16:29.024Z,68.60
2017-05-25T00:18:57.273Z,67.90
2017-05-25T00:21:25.551Z,67.50
2017-05-25T00:23:53.795Z,68.00
2017-05-25T00:26:22.055Z,67.50
2017-05-25T00:28:50.305Z,67.50
2017-05-25T00:31:18.581Z,68.70
2017-05-25T00:33:46.829Z,68.50
2017-05-25T00:36:15.078Z,68.40
2017-05-25T00:38:43.342Z,68.60
2017-05-25T00:41:11.601Z,69.60
2017-05-25T00:43:39.864Z,69.30
2017-05-25T00:46:08.128Z,69.30
2017-05-25T00:48:36.388Z,70.00
2017-05-25T00:51:04.630Z,69.50
2017-05-25T00:53:32.892Z,69.70
2017-05-25T00:56:01.156Z,71.20
2017-05-25T00:58:29.512Z,70.20
2017-05-25T01:00:57.784Z,70.20
2017-05-25T01:03:26.020Z,70.40
2017-05-25T01:05:54.283Z,70.70
2017-05-25T01:08:22.530Z,72.10
2017-05-25T01:10:50.783Z,71.60
2017-05-25T01:13:19.053Z,71.30
2017-05-25T01:15:47.320Z,72.20
2017-05-25T01:18:15.582Z,72.30
2017-05-25T01:20:43.825Z,72.30
2017-05-25T01:23:12.080Z,72.50
2017-05-25T01:25:40.327Z,73.30
2017-05-25T01:28:08.584Z,73.80
2017-05-25T01:30:36.824Z,72.70
2017-05-25T01:33:05.069Z,72.30
2017-05-25T01:35:33.332Z,72.50
2017-05-25T01:38:01.580Z,72.60
2017-05-25T01:40:29.843Z,73.50
2017-05-25T01:42:58.096Z,73.30
2017-05-25T01:45:26.360Z,73.10
2017-05-25T01:47:54.626Z,73.00
2017-05-25T01:50:22.868Z,73.40
2017-05-25T01:52:51.129Z,73.60
2017-05-25T01:55:19.368Z,74.20
2017-05-25T01:57:47.617Z,74.30
2017-05-25T02:00:15.889Z,74.80
2017-05-25T02:02:44.148Z,75.20
2017-05-25T02:05:12.397Z,74.60
2017-05-25T02:07:40.649Z,73.40
2017-05-25T02:10:08.924Z,73.00
2017-05-25T02:12:37.176Z,72.90
2017-05-25T02:15:05.431Z,73.30
2017-05-25T02:17:33.681Z,73.10
2017-05-25T02:20:01.929Z,73.90
2017-05-25T02:22:30.212Z,74.60
2017-05-25T02:24:58.455Z,74.80
2017-05-25T02:27:26.701Z,74.90
2017-05-25T02:29:54.961Z,74.70
2017-05-25T02:32:23.213Z,74.50
2017-05-25T02:34:51.477Z,74.00
2017-05-25T02:37:19.723Z,74.70
2017-05-25T02:39:47.968Z,73.90
2017-05-25T02:42:16.243Z,74.40
2017-05-25T02:44:44.489Z,74.30
2017-05-25T02:47:12.757Z,74.00
2017-05-25T02:49:41.033Z,74.30
2017-05-25T02:52:09.300Z,74.20
2017-05-25T02:54:37.569Z,74.50
2017-05-25T02:57:05.826Z,74.90
2017-05-25T02:59:34.088Z,75.30
2017-05-25T03:02:02.356Z,75.90
2017-05-25T03:04:30.630Z,76.40
2017-05-25T03:06:58.884Z,76.30
2017-05-25T03:09:27.130Z,76.30
2017-05-25T03:11:55.391Z,77.60
2017-05-25T03:14:23.635Z,77.80
2017-05-25T03:16:51.897Z,77.60
2017-05-25T03:19:20.155Z,78.20
2017-05-25T03:21:48.412Z,78.70
2017-05-25T03:24:16.655Z,78.10
2017-05-25T03:26:44.913Z,78.80
2017-05-25T03:29:13.172Z,78.60
2017-05-25T03:31:41.417Z,78.50
2017-05-25T03:34:09.681Z,78.80
2017-05-25T03:36:37.933Z,78.80
2017-05-25T03:39:06.244Z,78.30
2017-05-25T03:41:34.490Z,78.50
2017-05-25T03:44:02.753Z,78.40
2017-05-25T03:46:30.998Z,78.20
2017-05-25T03:48:59.244Z,78.90
2017-05-25T03:51:27.523Z,79.60
2017-05-25T03:53:55.765Z,79.30
2017-05-25T03:56:24.035Z,79.50
2017-05-25T03:58:52.282Z,79.00
2017-05-25T04:01:20.552Z,79.50
2017-05-25T04:03:48.795Z,78.90
2017-05-25T04:06:17.063Z,78.50
2017-05-25T04:08:45.326Z,78.40
2017-05-25T04:11:13.572Z,78.20
2017-05-25T04:13:41.838Z,77.90
2017-05-25T04:16:10.084Z,77.40
2017-05-25T04:18:38.419Z,77.10
2017-05-25T04:21:06.676Z,77.80
2017-05-25T04:23:34.920Z,77.80
2017-05-25T04:26:03.192Z,78.00
2017-05-25T04:28:31.437Z,78.40
2017-05-25T04:30:59.700Z,78.00
2017-05-25T04:33:27.950Z,77.90
2017-05-25T04:35:56.209Z,77.30
2017-05-25T04:38:24.484Z,77.50
2017-05-25T04:40:52.732Z,76.70
2017-05-25T04:43:21.005Z,76.90
2017-05-25T04:45:49.258Z,76.90
2017-05-25T04:48:17.515Z,76.90
2017-05-25T04:50:45.821Z,77.40
2017-05-25T04:53:14.089Z,77.00
2017-05-25T04:55:42.337Z,76.90
2017-05-25T04:58:10.660Z,77.30
2017-05-25T05:00:38.931Z,77.30
2017-05-25T05:03:07.249Z,76.40
2017-05-25T05:05:35.521Z,76.20
2017-05-25T05:08:03.797Z,76.10
2017-05-25T05:10:32.073Z,76.30
2017-05-25T05:13:00.332Z,76.40
2017-05-25T05:15:28.596Z,76.90
2017-05-25T05:17:56.848Z,75.60
2017-05-25T05:20:25.125Z,76.40
2017-05-25T05:22:53.393Z,75.10
2017-05-25T05:25:21.651Z,74.60
2017-05-25T05:27:49.921Z,73.70
2017-05-25T05:30:18.160Z,74.50
2017-05-25T05:32:46.425Z,74.90
2017-05-25T05:35:14.692Z,74.70
2017-05-25T05:37:42.960Z,74.90
2017-05-25T05:40:11.209Z,74.10
2017-05-25T05:42:39.477Z,73.20
2017-05-25T05:45:08.205Z,72.90
2017-05-25T05:47:36.452Z,72.40
2017-05-25T05:50:04.729Z,71.80
2017-05-25T05:52:32.985Z,71.10
2017-05-25T05:55:01.240Z,69.40
2017-05-25T05:57:29.504Z,69.70
2017-05-25T05:59:57.769Z,69.40
2017-05-25T06:02:26.064Z,68.90
2017-05-25T06:04:54.324Z,68.70
2017-05-25T06:07:22.603Z,68.40
2017-05-25T06:09:50.868Z,67.90
2017-05-25T06:12:19.124Z,66.00
2017-05-25T06:14:47.392Z,64.60
2017-05-25T06:17:15.664Z,63.60
2017-05-25T06:19:43.911Z,61.60
2017-05-25T06:22:12.176Z,60.00
2017-05-25T06:24:40.425Z,61.20
2017-05-25T06:27:08.696Z,60.60
2017-05-25T06:29:36.936Z,61.00
2017-05-25T06:32:05.217Z,61.10
2017-05-25T06:34:33.464Z,60.70
2017-05-25T06:37:01.712Z,59.60
2017-05-25T06:39:29.984Z,60.00
2017-05-25T06:41:58.233Z,58.50
2017-05-25T06:44:26.501Z,58.50
2017-05-25T06:46:54.752Z,59.60
2017-05-25T06:49:23.024Z,58.00
2017-05-25T06:51:51.269Z,56.40
2017-05-25T06:54:19.536Z,55.70
2017-05-25T06:56:47.776Z,52.00
2017-05-25T06:59:16.029Z,49.90
2017-05-25T07:01:44.297Z,49.00
2017-05-25T07:04:12.544Z,49.10
2017-05-25T07:06:40.820Z,44.80
2017-05-25T07:09:09.065Z,45.80
2017-05-25T07:11:37.328Z,43.80
2017-05-25T07:14:05.576Z,43.60
2017-05-25T07:16:33.837Z,44.20
2017-05-25T07:19:02.129Z,45.90
2017-05-25T07:21:30.377Z,46.10
2017-05-25T07:23:58.658Z,45.60
2017-05-25T07:26:26.900Z,46.00
2017-05-25T07:28:55.158Z,44.30
2017-05-25T07:31:24.268Z,41.60
2017-05-25T07:33:52.523Z,41.70
2017-05-25T07:36:20.797Z,41.60
2017-05-25T07:38:49.042Z,40.90
2017-05-25T07:41:17.284Z,41.60
2017-05-25T07:43:45.552Z,42.70
2017-05-25T07:46:13.789Z,39.80
2017-05-25T07:48:42.062Z,37.90
2017-05-25T07:51:10.307Z,38.80
2017-05-25T07:53:38.568Z,38.80
2017-05-25T07:56:06.804Z,40.90
2017-05-25T07:58:35.071Z,40.90
2017-05-25T08:01:03.313Z,37.50
2017-05-25T08:03:31.553Z,35.60
2017-05-25T08:05:59.812Z,34.10
2017-05-25T08:08:28.053Z,35.40
2017-05-25T08:10:56.304Z,37.40
2017-05-25T08:13:24.565Z,39.70
2017-05-25T08:15:52.816Z,40.20
2017-05-25T08:18:21.079Z,41.40
2017-05-25T08:20:49.339Z,39.30
2017-05-25T08:23:17.573Z,37.00
2017-05-25T08:25:45.839Z,34.20
2017-05-25T08:28:14.175Z,32.30
2017-05-25T08:30:42.428Z,31.50
2017-05-25T08:33:10.670Z,31.20
2017-05-25T08:35:38.922Z,30.00
2017-05-25T08:38:07.164Z,29.90
2017-05-25T08:40:35.400Z,29.20
2017-05-25T08:43:03.673Z,28.10
2017-05-25T08:45:31.920Z,30.10
2017-05-25T08:48:00.184Z,30.80
2017-05-25T08:50:28.425Z,31.60
2017-05-25T08:52:55.928Z,31.60
2017-05-25T08:55:24.172Z,34.90
2017-05-25T08:57:52.426Z,34.30
2017-05-25T09:00:20.709Z,35.90
2017-05-25T09:02:48.946Z,37.50
2017-05-25T09:05:17.212Z,38.50
2017-05-25T09:07:45.456Z,37.30
2017-05-25T09:10:13.705Z,40.60
2017-05-25T09:12:41.970Z,40.00
2017-05-25T09:15:10.205Z,38.20
2017-05-25T09:17:38.489Z,38.50
2017-05-25T09:20:06.729Z,35.70
2017-05-25T09:22:34.996Z,35.50
2017-05-25T09:25:03.232Z,34.50
2017-05-25T09:27:31.485Z,34.70
2017-05-25T09:29:59.750Z,35.50
2017-05-25T09:32:27.989Z,37.20
2017-05-25T09:34:56.235Z,37.60
2017-05-25T09:37:24.497Z,38.70
2017-05-25T09:39:52.757Z,37.50
2017-05-25T09:42:21.009Z,39.10
2017-05-25T09:44:49.313Z,39.50
2017-05-25T09:47:17.576Z,39.10
2017-05-25T09:49:45.828Z,33.00
2017-05-25T09:52:14.082Z,30.00
2017-05-25T09:54:42.345Z,27.60
2017-05-25T09:57:10.630Z,27.00
2017-05-25T09:59:38.868Z,28.10
2017-05-25T10:02:07.120Z,26.60
2017-05-25T10:04:35.389Z,24.80
2017-05-25T10:07:03.628Z,23.20
2017-05-25T10:09:31.893Z,21.70
2017-05-25T10:12:00.129Z,21.10
2017-05-25T10:14:28.390Z,22.20
2017-05-25T10:16:56.616Z,21.90
2017-05-25T10:19:24.872Z,21.00
2017-05-25T10:21:53.117Z,20.20
2017-05-25T10:24:21.354Z,20.80
2017-05-25T10:26:49.616Z,21.10
2017-05-25T10:29:17.849Z,23.30
2017-05-25T10:31:46.120Z,23.70
2017-05-25T10:34:14.387Z,24.10
2017-05-25T10:36:42.633Z,25.10
2017-05-25T10:39:10.897Z,27.80
2017-05-25T10:41:39.137Z,28.20
2017-05-25T10:44:07.372Z,27.40
2017-05-25T10:46:35.635Z,24.90
2017-05-25T10:49:03.881Z,24.10
2017-05-25T10:51:32.146Z,23.50
2017-05-25T10:54:00.372Z,23.00
2017-05-25T10:56:28.634Z,23.30
2017-05-25T10:58:56.900Z,24.90
2017-05-25T11:01:25.164Z,27.00
2017-05-25T11:03:53.420Z,28.50
2017-05-25T11:06:21.652Z,28.00
2017-05-25T11:08:49.904Z,26.30
2017-05-25T11:11:18.172Z,27.40
2017-05-25T11:13:46.434Z,27.80
2017-05-25T11:16:14.668Z,27.50
2017-05-25T11:18:42.912Z,26.70
2017-05-25T11:21:11.184Z,27.40
2017-05-25T11:23:39.528Z,27.20
2017-05-25T11:26:07.768Z,28.50
2017-05-25T11:28:36.023Z,27.10
2017-05-25T11:31:04.413Z,26.30
2017-05-25T11:33:32.741Z,26.60
2017-05-25T11:36:00.980Z,27.80
2017-05-25T11:38:29.245Z,29.70
2017-05-25T11:40:57.488Z,28.70
2017-05-25T11:43:25.741Z,30.00
2017-05-25T11:45:54.002Z,29.90
2017-05-25T11:48:23.268Z,31.20
2017-05-25T11:50:51.525Z,29.10
2017-05-25T11:53:19.781Z,30.20
2017-05-25T11:55:48.025Z,30.70
2017-05-25T11:58:16.288Z,30.90
2017-05-25T12:00:44.534Z,33.50
2017-05-25T12:03:12.798Z,32.70
2017-05-25T12:05:41.056Z,33.10
2017-05-25T12:08:09.302Z,31.00
2017-05-25T12:10:37.561Z,33.10
2017-05-25T12:13:05.806Z,33.00
2017-05-25T12:15:34.048Z,32.90
2017-05-25T12:18:02.308Z,31.30
2017-05-25T12:20:30.553Z,33.70
2017-05-25T12:22:58.793Z,32.50
2017-05-25T12:25:27.051Z,30.40
2017-05-25T12:27:55.308Z,30.90
2017-05-25T12:30:23.565Z,32.10
2017-05-25T12:32:51.826Z,30.50
2017-05-25T12:35:20.091Z,30.40
2017-05-25T12:37:48.346Z,30.40
2017-05-25T12:40:16.605Z,30.40
2017-05-25T12:42:44.853Z,30.90
2017-05-25T12:45:13.112Z,30.30
2017-05-25T12:47:41.344Z,30.00
2017-05-25T12:50:09.609Z,30.70
2017-05-25T12:52:37.847Z,31.60
2017-05-25T12:55:06.107Z,32.50
2017-05-25T12:57:34.366Z,30.60
2017-05-25T13:00:02.600Z,30.90
2017-05-25T13:02:30.890Z,30.70
2017-05-25T13:04:59.138Z,29.70
2017-05-25T13:07:27.377Z,30.60
2017-05-25T13:09:55.632Z,30.50
2017-05-25T13:12:23.878Z,29.40
2017-05-25T13:14:52.136Z,28.80
2017-05-25T13:17:20.388Z,30.80
2017-05-25T13:19:48.664Z,29.90
2017-05-25T13:22:16.905Z,29.20
2017-05-25T13:24:45.146Z,30.30
2017-05-25T13:27:13.408Z,30.30
2017-05-25T13:29:41.660Z,29.50
2017-05-25T13:32:09.933Z,29.00
2017-05-25T13:34:38.176Z,30.10
2017-05-25T13:37:06.425Z,30.90
2017-05-25T13:39:34.681Z,30.40
2017-05-25T13:42:02.934Z,31.20
2017-05-25T13:44:31.176Z,32.00
2017-05-25T13:46:59.526Z,30.10
2017-05-25T13:49:27.760Z,30.30
2017-05-25T13:51:55.995Z,29.70
2017-05-25T13:54:24.250Z,29.90
2017-05-25T13:56:52.492Z,29.90
2017-05-25T13:59:20.752Z,29.70
2017-05-25T14:01:48.993Z,30.40
2017-05-25T14:04:17.257Z,31.20
2017-05-25T14:06:45.493Z,30.70
2017-05-25T14:09:13.736Z,31.90
2017-05-25T14:11:41.992Z,32.00
2017-05-25T14:14:10.256Z,31.20
2017-05-25T14:16:38.517Z,30.50
2017-05-25T14:19:06.755Z,31.40
2017-05-25T14:21:35.020Z,30.60
2017-05-25T14:24:03.260Z,31.70
2017-05-25T14:26:31.505Z,33.20
2017-05-25T14:28:59.760Z,31.30
2017-05-25T14:31:28.024Z,30.90
2017-05-25T14:33:56.301Z,30.70
2017-05-25T14:36:24.542Z,31.20
2017-05-25T14:38:52.800Z,31.70
2017-05-25T14:41:21.044Z,33.40
2017-05-25T14:43:49.308Z,32.10
2017-05-25T14:46:17.565Z,30.50
2017-05-25T14:48:45.817Z,31.30
2017-05-25T14:51:14.093Z,33.50
2017-05-25T14:53:42.337Z,32.00
2017-05-25T14:56:10.573Z,32.80
2017-05-25T14:58:38.840Z,32.00
2017-05-25T15:01:07.104Z,33.20
2017-05-25T15:03:35.377Z,36.00
2017-05-25T15:06:03.612Z,34.40
2017-05-25T15:08:31.893Z,33.80
2017-05-25T15:11:00.152Z,33.80
2017-05-25T15:13:28.400Z,33.30
2017-05-25T15:15:56.664Z,34.80
2017-05-25T15:18:24.909Z,33.90
2017-05-25T15:20:53.182Z,35.40
2017-05-25T15:23:21.430Z,34.80
2017-05-25T15:25:49.700Z,35.00
2017-05-25T15:28:17.948Z,35.20
2017-05-25T15:30:46.200Z,35.80
2017-05-25T15:33:14.469Z,35.50
2017-05-25T15:35:42.729Z,35.50
2017-05-25T15:38:10.989Z,35.50
2017-05-25T15:40:39.257Z,34.80
2017-05-25T15:43:07.501Z,35.90
2017-05-25T15:45:35.744Z,36.30
2017-05-25T15:48:04.005Z,36.90
2017-05-25T15:50:32.268Z,34.60
2017-05-25T15:53:00.518Z,34.60
2017-05-25T15:55:28.756Z,34.30
2017-05-25T15:57:57.008Z,36.40
2017-05-25T16:00:25.252Z,36.50
2017-05-25T16:02:53.524Z,34.70
2017-05-25T16:05:21.768Z,35.80
2017-05-25T16:07:50.028Z,36.30
2017-05-25T16:10:18.280Z,35.40
2017-05-25T16:12:46.528Z,34.20
2017-05-25T16:15:14.852Z,35.20
2017-05-25T16:17:43.084Z,35.70
2017-05-25T16:20:11.344Z,36.20
2017-05-25T16:22:39.593Z,36.20
2017-05-25T16:25:07.841Z,35.80
2017-05-25T16:27:36.110Z,36.50
2017-05-25T16:30:04.360Z,35.80
2017-05-25T16:32:32.628Z,36.20
2017-05-25T16:35:00.864Z,35.80
2017-05-25T16:37:29.126Z,36.30
2017-05-25T16:39:57.365Z,36.20
2017-05-25T16:42:25.621Z,35.80
2017-05-25T16:44:53.886Z,37.00
2017-05-25T16:47:22.133Z,36.80
2017-05-25T16:49:50.393Z,36.90
2017-05-25T16:52:18.633Z,38.10
2017-05-25T16:54:46.884Z,37.60
2017-05-25T16:57:15.144Z,37.20
2017-05-25T16:59:43.392Z,38.10
2017-05-25T17:02:11.657Z,37.20
2017-05-25T17:04:39.906Z,38.80
2017-05-25T17:07:08.157Z,38.80
2017-05-25T17:09:36.417Z,39.00
2017-05-25T17:12:04.660Z,38.50
2017-05-25T17:14:32.939Z,39.00
2017-05-25T17:17:01.192Z,38.20
2017-05-25T17:19:29.559Z,38.60
2017-05-25T17:21:57.823Z,38.90
2017-05-25T17:24:26.066Z,39.50
2017-05-25T17:26:54.337Z,40.10
2017-05-25T17:29:22.621Z,40.50
2017-05-25T17:31:50.952Z,40.50
2017-05-25T17:34:19.194Z,40.40
2017-05-25T17:36:47.440Z,40.90
2017-05-25T17:39:15.686Z,39.90
2017-05-25T17:41:43.949Z,40.00
2017-05-25T17:44:12.217Z,41.30
2017-05-25T17:46:40.470Z,40.60
2017-05-25T17:49:08.725Z,40.70
2017-05-25T17:51:36.999Z,40.90
2017-05-25T17:54:05.237Z,40.70
2017-05-25T17:56:33.489Z,40.20
2017-05-25T17:59:01.749Z,40.60
2017-05-25T18:01:30.032Z,40.90
2017-05-25T18:03:58.293Z,44.40
2017-05-25T18:06:26.536Z,41.10
2017-05-25T18:08:54.811Z,41.30
2017-05-25T18:11:23.781Z,42.70
2017-05-25T18:13:52.029Z,42.70
2017-05-25T18:16:20.297Z,42.70
2017-05-25T18:18:48.531Z,41.80
2017-05-25T18:21:16.808Z,42.20
2017-05-25T18:23:45.054Z,42.50
2017-05-25T18:26:13.365Z,43.30
2017-05-25T18:28:41.617Z,44.70
2017-05-25T18:31:09.889Z,44.00
2017-05-25T18:33:38.138Z,44.60
2017-05-25T18:36:06.416Z,44.90
2017-05-25T18:38:34.668Z,45.40
2017-05-25T18:41:02.931Z,45.80
2017-05-25T18:43:31.195Z,46.00
2017-05-25T18:45:59.453Z,46.20
2017-05-25T18:48:27.726Z,46.70
2017-05-25T18:50:55.975Z,46.10
2017-05-25T18:53:24.256Z,46.00
2017-05-25T18:55:52.511Z,46.70
2017-05-25T18:58:20.774Z,46.40
2017-05-25T19:00:49.018Z,47.00
2017-05-25T19:03:17.287Z,47.50
2017-05-25T19:05:45.524Z,47.40
2017-05-25T19:08:13.771Z,47.40
2017-05-25T19:10:42.035Z,48.30
2017-05-25T19:13:10.274Z,48.60
2017-05-25T19:15:38.536Z,48.90
2017-05-25T19:18:06.780Z,49.10
2017-05-25T19:20:35.061Z,49.30
2017-05-25T19:23:03.322Z,49.90
2017-05-25T19:25:31.568Z,50.70
2017-05-25T19:27:59.834Z,51.30
2017-05-25T19:30:28.091Z,52.40
2017-05-25T19:32:56.349Z,51.10
2017-05-25T19:35:24.600Z,51.20
2017-05-25T19:37:52.869Z,51.60
2017-05-25T19:40:21.117Z,52.90
2017-05-25T19:42:49.377Z,52.50
2017-05-25T19:45:17.625Z,52.70
2017-05-25T19:47:45.895Z,53.80
2017-05-25T19:50:14.150Z,53.80
2017-05-25T19:52:42.417Z,54.90
2017-05-25T19:55:10.665Z,55.90
2017-05-25T19:57:38.914Z,55.80
2017-05-25T20:00:07.204Z,56.70
2017-05-25T20:02:35.445Z,56.10
2017-05-25T20:05:03.724Z,54.30
2017-05-25T20:07:31.978Z,54.50
2017-05-25T20:10:00.259Z,55.40
2017-05-25T20:12:28.515Z,54.60
2017-05-25T20:14:56.770Z,55.00
2017-05-25T20:17:25.041Z,54.60
2017-05-25T20:19:53.305Z,54.70
2017-05-25T20:22:21.572Z,54.70
2017-05-25T20:24:49.846Z,54.60
2017-05-25T20:27:18.100Z,54.60
2017-05-25T20:29:46.354Z,54.90
2017-05-25T20:32:14.627Z,54.60
2017-05-25T20:34:42.892Z,54.80
2017-05-25T20:37:11.170Z,54.60
2017-05-25T20:39:39.431Z,54.90
2017-05-25T20:42:07.697Z,55.30
2017-05-25T20:44:35.956Z,55.20
2017-05-25T20:47:04.208Z,54.40
2017-05-25T20:49:32.480Z,54.70
2017-05-25T20:52:00.730Z,54.90
2017-05-25T20:54:28.996Z,54.50
2017-05-25T20:56:57.250Z,55.60
2017-05-25T20:59:25.516Z,54.50
2017-05-25T21:01:53.764Z,54.40
2017-05-25T21:04:22.041Z,53.90
2017-05-25T21:06:50.296Z,53.80
2017-05-25T21:09:18.585Z,53.80
2017-05-25T21:11:46.825Z,53.70
2017-05-25T21:14:15.097Z,54.10
2017-05-25T21:16:43.376Z,53.60
2017-05-25T21:19:11.646Z,53.70
2017-05-25T21:21:39.912Z,53.90
2017-05-25T21:24:08.156Z,53.80
2017-05-25T21:26:36.429Z,53.90
2017-05-25T21:29:04.678Z,54.20
2017-05-25T21:31:32.950Z,54.20
2017-05-25T21:34:01.201Z,54.00
2017-05-25T21:36:29.483Z,54.00
2017-05-25T21:38:57.729Z,54.00
2017-05-25T21:41:25.996Z,53.90
2017-05-25T21:43:54.248Z,54.00
2017-05-25T21:46:22.565Z,53.70
2017-05-25T21:48:50.806Z,53.70
2017-05-25T21:51:19.066Z,54.00
2017-05-25T21:53:47.329Z,54.30
2017-05-25T21:56:15.574Z,54.90
2017-05-25T21:58:43.837Z,56.60
2017-05-25T22:01:12.089Z,57.20
2017-05-25T22:03:40.357Z,59.00
2017-05-25T22:06:08.599Z,59.10
2017-05-25T22:08:36.866Z,59.10
2017-05-25T22:11:05.117Z,59.30
2017-05-25T22:13:33.372Z,59.30
2017-05-25T22:16:01.617Z,60.60
2017-05-25T22:18:29.880Z,61.10
2017-05-25T22:20:58.149Z,62.20
2017-05-25T22:23:26.397Z,62.00
2017-05-25T22:25:54.671Z,61.80
2017-05-25T22:28:22.941Z,62.10
2017-05-25T22:30:51.184Z,63.10
2017-05-25T22:33:19.456Z,63.50
2017-05-25T22:35:47.724Z,65.10
2017-05-25T22:38:15.956Z,64.80
2017-05-25T22:40:44.218Z,64.60
2017-05-25T22:43:12.468Z,64.50
2017-05-25T22:45:40.703Z,65.60
2017-05-25T22:48:08.968Z,64.80
2017-05-25T22:50:37.221Z,66.40
2017-05-25T22:53:05.486Z,66.80
2017-05-25T22:55:33.726Z,65.80
2017-05-25T22:58:01.991Z,66.90
2017-05-25T23:00:30.242Z,67.30
2017-05-25T23:02:58.501Z,68.00
2017-05-25T23:05:26.758Z,67.90
2017-05-25T23:07:55.010Z,67.80
2017-05-25T23:10:23.253Z,68.40
2017-05-25T23:12:51.520Z,68.20
2017-05-25T23:15:19.760Z,69.40
2017-05-25T23:17:48.013Z,68.60
2017-05-25T23:20:16.249Z,68.90
2017-05-25T23:22:45.365Z,68.40
2017-05-25T23:25:13.604Z,68.90
2017-05-25T23:27:41.841Z,68.90
2017-05-25T23:30:10.108Z,69.90
2017-05-25T23:32:38.381Z,68.50
2017-05-25T23:35:06.612Z,70.50
2017-05-25T23:37:34.870Z,69.90
2017-05-25T23:40:03.125Z,71.50
2017-05-25T23:42:31.388Z,70.40
2017-05-25T23:44:59.645Z,70.10
2017-05-25T23:47:27.916Z,70.90
2017-05-25T23:49:56.171Z,71.00
2017-05-25T23:52:24.437Z,70.70
2017-05-25T23:54:52.688Z,71.90
2017-05-25T23:57:20.932Z,71.80
2017-05-25T23:59:49.239Z,70.60
